Time;durP1;ratioP1;P1;durP2;ratioP2;P2;SDS_P1;SDS_P2;PMS_P1;PMS_P2;Temp;Humidity;BMP_temperature;BMP_pressure;BME280_temperature;BME280_humidity;BME280_pressure;Samples;Min_cycle;Max_cycle;Signal;HPM_P1;HPM_P2
2021/11/07 00:02:30;;;;;;;22.20;19.57;;;9.70;99.90;;;;;;5006454;28;20236;-62
2021/11/07 00:05:03;;;;;;;22.00;19.83;;;9.70;99.90;;;;;;5008399;28;21072;-64
2021/11/07 00:07:42;;;;;;;22.23;19.63;;;9.70;99.90;;;;;;5001882;28;20237;-63
2021/11/07 00:10:14;;;;;;;19.57;17.67;;;9.70;99.90;;;;;;5008529;28;20343;-63
2021/11/07 00:12:47;;;;;;;21.67;18.67;;;9.60;99.90;;;;;;5020067;28;20588;-63
2021/11/07 00:15:17;;;;;;;22.27;19.93;;;9.70;99.90;;;;;;5023882;28;20298;-63
2021/11/07 00:17:50;;;;;;;20.73;18.57;;;9.70;99.90;;;;;;5020260;28;20782;-62
2021/11/07 00:20:22;;;;;;;22.77;19.40;;;9.70;99.90;;;;;;5024732;28;20236;-63
2021/11/07 00:22:55;;;;;;;22.43;20.13;;;9.70;99.90;;;;;;5024465;28;20243;-63
2021/11/07 00:25:28;;;;;;;20.47;18.47;;;9.70;99.90;;;;;;5025320;28;20228;-63
2021/11/07 00:28:00;;;;;;;19.87;17.97;;;9.70;99.90;;;;;;5024460;28;20233;-63
2021/11/07 00:30:38;;;;;;;21.17;19.00;;;9.70;99.90;;;;;;5016088;28;20271;-63
2021/11/07 00:33:17;;;;;;;21.17;18.97;;;9.70;99.90;;;;;;5024037;28;20247;-62
2021/11/07 00:36:07;;;;;;;20.13;18.23;;;9.70;99.90;;;;;;5024215;28;20254;-63
2021/11/07 00:38:42;;;;;;;20.80;18.60;;;9.70;99.90;;;;;;5023378;28;20315;-63
2021/11/07 00:41:21;;;;;;;19.37;17.57;;;9.60;99.90;;;;;;5027983;28;20581;-62
2021/11/07 00:43:56;;;;;;;20.67;16.97;;;9.70;99.90;;;;;;5026345;28;20241;-62
2021/11/07 00:46:28;;;;;;;19.30;17.57;;;9.70;99.90;;;;;;5026836;28;20294;-63
2021/11/07 00:48:58;;;;;;;20.33;18.40;;;9.70;99.90;;;;;;5029941;28;20252;-63
2021/11/07 00:51:31;;;;;;;20.00;18.03;;;9.70;99.90;;;;;;5028532;28;20327;-63
2021/11/07 00:54:15;;;;;;;18.80;16.97;;;9.70;99.90;;;;;;5029843;28;20581;-63
2021/11/07 00:56:46;;;;;;;20.23;18.33;;;9.70;99.90;;;;;;5029082;28;20309;-63
2021/11/07 00:59:31;;;;;;;18.70;17.00;;;9.70;99.90;;;;;;5030077;28;20242;-63
2021/11/07 01:02:11;;;;;;;19.50;17.60;;;9.70;99.90;;;;;;5028171;28;20263;-62
2021/11/07 01:04:45;;;;;;;18.63;16.87;;;9.70;99.90;;;;;;5023067;28;20596;-63
2021/11/07 01:07:14;;;;;;;18.43;16.67;;;9.70;99.90;;;;;;5027450;28;20243;-62
2021/11/07 01:09:42;;;;;;;19.63;17.73;;;9.70;99.90;;;;;;5029815;28;20247;-64
2021/11/07 01:12:11;;;;;;;21.40;19.40;;;9.70;99.90;;;;;;5028325;28;20268;-63
2021/11/07 01:14:41;;;;;;;19.67;17.97;;;9.70;99.90;;;;;;5029117;28;20240;-63
2021/11/07 01:17:09;;;;;;;19.30;17.40;;;9.60;99.90;;;;;;5027025;28;20320;-63
2021/11/07 01:19:38;;;;;;;19.17;17.37;;;9.70;99.90;;;;;;5029690;28;20258;-63
2021/11/07 01:22:09;;;;;;;19.23;17.30;;;9.70;99.90;;;;;;5027770;28;20242;-63
2021/11/07 01:24:40;;;;;;;20.00;17.93;;;9.70;99.90;;;;;;5029102;28;20240;-63
2021/11/07 01:27:17;;;;;;;19.00;17.20;;;9.70;99.90;;;;;;5026598;28;20270;-63
2021/11/07 01:29:50;;;;;;;20.13;18.13;;;9.70;99.90;;;;;;5028495;28;20335;-64
2021/11/07 01:32:21;;;;;;;19.50;17.50;;;9.70;99.90;;;;;;5026659;28;20715;-62
2021/11/07 01:34:57;;;;;;;20.07;18.20;;;9.70;99.90;;;;;;5026066;28;20711;-63
2021/11/07 01:37:30;;;;;;;19.13;17.37;;;9.70;99.90;;;;;;5029005;28;20242;-63
2021/11/07 01:40:05;;;;;;;18.53;16.83;;;9.70;99.90;;;;;;5026228;28;20227;-63
2021/11/07 01:42:35;;;;;;;17.33;15.63;;;9.70;99.90;;;;;;5020648;28;20642;-63
2021/11/07 01:45:11;;;;;;;17.23;15.73;;;9.70;99.90;;;;;;5028644;28;20271;-63
2021/11/07 01:47:45;;;;;;;16.73;15.23;;;9.70;99.90;;;;;;5028711;28;20246;-63
2021/11/07 01:50:13;;;;;;;16.60;15.10;;;9.70;99.90;;;;;;5026614;28;20228;-63
2021/11/07 01:52:43;;;;;;;16.70;15.27;;;9.80;99.90;;;;;;5028342;28;20244;-63
2021/11/07 01:55:17;;;;;;;15.73;14.53;;;9.70;99.90;;;;;;5028226;28;20600;-63
2021/11/07 01:57:47;;;;;;;17.10;15.47;;;9.80;99.90;;;;;;5028897;28;20619;-63
2021/11/07 02:00:20;;;;;;;15.77;14.37;;;9.80;99.90;;;;;;5027956;28;20266;-63
2021/11/07 02:02:49;;;;;;;16.47;14.97;;;9.80;99.90;;;;;;5022611;28;20693;-62
2021/11/07 02:05:17;;;;;;;15.30;13.83;;;9.80;99.90;;;;;;4987529;28;20264;-63
2021/11/07 02:07:45;;;;;;;15.30;13.87;;;9.80;99.90;;;;;;4988981;28;20253;-62
2021/11/07 02:10:16;;;;;;;15.07;13.73;;;9.80;99.90;;;;;;4988759;28;20705;-63
2021/11/07 02:12:46;;;;;;;15.83;14.47;;;9.80;99.90;;;;;;4988197;28;20272;-63
2021/11/07 02:15:17;;;;;;;14.50;13.30;;;9.80;99.90;;;;;;4988774;28;20721;-63
2021/11/07 02:17:46;;;;;;;13.67;12.47;;;9.80;99.90;;;;;;4988665;28;20241;-63
2021/11/07 02:20:23;;;;;;;13.67;12.43;;;9.80;99.90;;;;;;4992338;28;20266;-63
2021/11/07 02:22:51;;;;;;;12.93;11.73;;;9.80;99.90;;;;;;4987950;28;20321;-63
2021/11/07 02:25:20;;;;;;;13.03;11.67;;;9.80;99.90;;;;;;4988269;28;20253;-62
2021/11/07 02:27:48;;;;;;;12.50;11.40;;;9.80;99.90;;;;;;4988552;28;20289;-63
2021/11/07 02:30:17;;;;;;;12.23;11.10;;;9.80;99.90;;;;;;4988221;28;20755;-64
2021/11/07 02:32:46;;;;;;;12.43;11.33;;;9.80;99.90;;;;;;4987433;28;20261;-63
2021/11/07 02:35:15;;;;;;;12.30;11.20;;;9.80;99.90;;;;;;4988047;28;20866;-63
2021/11/07 02:37:45;;;;;;;11.90;10.80;;;9.80;99.90;;;;;;4988493;28;20237;-63
2021/11/07 02:40:14;;;;;;;11.27;10.37;;;9.80;99.90;;;;;;4988193;28;20238;-63
2021/11/07 02:42:43;;;;;;;11.97;10.87;;;9.80;99.90;;;;;;4987248;28;20272;-64
2021/11/07 02:45:15;;;;;;;11.53;10.53;;;9.80;99.90;;;;;;4988333;28;20606;-63
2021/11/07 02:47:48;;;;;;;11.97;10.87;;;9.80;99.90;;;;;;4988034;28;20726;-63
2021/11/07 02:50:19;;;;;;;11.67;10.67;;;9.80;99.90;;;;;;4987671;28;20758;-63
2021/11/07 02:52:50;;;;;;;11.77;10.87;;;9.80;99.90;;;;;;4981856;28;20657;-62
2021/11/07 02:55:22;;;;;;;11.07;10.13;;;9.80;99.90;;;;;;4987993;28;20258;-62
2021/11/07 02:57:54;;;;;;;11.73;10.73;;;9.90;99.90;;;;;;4988376;28;20270;-63
2021/11/07 03:00:23;;;;;;;10.93;9.97;;;9.90;99.90;;;;;;4986280;28;20312;-63
2021/11/07 03:02:52;;;;;;;10.40;9.50;;;9.90;99.90;;;;;;4986866;28;20321;-63
2021/11/07 03:05:20;;;;;;;10.07;9.17;;;9.80;99.90;;;;;;5026723;28;20232;-63
2021/11/07 03:07:49;;;;;;;9.83;8.93;;;9.80;99.90;;;;;;5027319;28;20707;-63
2021/11/07 03:10:18;;;;;;;10.47;9.57;;;9.80;99.90;;;;;;5026906;28;20263;-63
2021/11/07 03:12:47;;;;;;;9.43;8.63;;;9.90;99.90;;;;;;5026344;28;20237;-62
2021/11/07 03:15:15;;;;;;;10.47;8.63;;;9.80;99.90;;;;;;5026837;28;20236;-63
2021/11/07 03:17:43;;;;;;;8.40;7.70;;;9.80;99.90;;;;;;5020217;28;20226;-63
2021/11/07 03:20:11;;;;;;;8.73;8.03;;;9.80;99.90;;;;;;5024470;28;20244;-63
2021/11/07 03:22:40;;;;;;;8.80;8.00;;;9.80;99.90;;;;;;5026254;28;20239;-63
2021/11/07 03:25:09;;;;;;;8.60;7.87;;;9.80;99.90;;;;;;5026832;28;20244;-63
2021/11/07 03:27:40;;;;;;;7.90;7.20;;;9.80;99.90;;;;;;5023685;28;20232;-62
2021/11/07 03:30:18;;;;;;;7.10;6.40;;;9.80;99.90;;;;;;5026946;28;20236;-63
2021/11/07 03:32:49;;;;;;;7.00;6.33;;;9.80;99.90;;;;;;5025851;28;20704;-62
2021/11/07 03:35:18;;;;;;;7.70;6.03;;;9.80;99.90;;;;;;5026312;28;20240;-63
2021/11/07 03:37:56;;;;;;;6.27;5.67;;;9.80;99.90;;;;;;5027064;28;20233;-64
2021/11/07 03:40:27;;;;;;;6.47;5.50;;;9.80;99.90;;;;;;5026426;28;20228;-63
2021/11/07 03:42:56;;;;;;;6.43;4.93;;;9.80;99.90;;;;;;5026227;28;20815;-63
2021/11/07 03:45:26;;;;;;;4.93;4.43;;;9.90;99.90;;;;;;5025932;28;20231;-63
2021/11/07 03:47:59;;;;;;;4.70;4.30;;;9.90;99.90;;;;;;5020099;28;20316;-63
2021/11/07 03:50:28;;;;;;;7.53;4.23;;;9.90;99.90;;;;;;5025363;28;20236;-63
2021/11/07 03:52:57;;;;;;;4.20;3.40;;;9.90;99.90;;;;;;5025636;28;20768;-63
2021/11/07 03:55:27;;;;;;;3.60;3.20;;;9.90;99.90;;;;;;5026168;28;20232;-63
2021/11/07 03:57:55;;;;;;;5.10;3.13;;;9.80;99.90;;;;;;5026858;28;20240;-64
2021/11/07 04:00:24;;;;;;;4.87;3.20;;;9.80;99.90;;;;;;5026144;28;20239;-64
2021/11/07 04:02:53;;;;;;;4.30;2.80;;;9.80;99.90;;;;;;5025498;28;20333;-64
2021/11/07 04:05:23;;;;;;;4.50;2.90;;;9.80;99.90;;;;;;5026180;28;20237;-63
2021/11/07 04:07:52;;;;;;;7.10;2.40;;;9.80;99.90;;;;;;5026902;28;20598;-63
2021/11/07 04:10:21;;;;;;;5.43;2.60;;;9.80;99.90;;;;;;5025382;28;20236;-63
2021/11/07 04:12:51;;;;;;;6.80;2.13;;;9.70;99.90;;;;;;5025987;28;20715;-63
2021/11/07 04:15:19;;;;;;;7.77;2.53;;;9.80;99.90;;;;;;5028055;28;20735;-63
2021/11/07 04:17:47;;;;;;;7.40;2.00;;;9.80;99.90;;;;;;5030217;28;20418;-63
2021/11/07 04:20:16;;;;;;;9.23;2.43;;;9.80;99.90;;;;;;5029439;28;20236;-63
2021/11/07 04:22:46;;;;;;;7.23;2.03;;;9.80;99.90;;;;;;5029640;28;20236;-63
2021/11/07 04:25:15;;;;;;;10.87;2.03;;;9.80;99.90;;;;;;5029917;28;20327;-63
2021/11/07 04:27:43;;;;;;;8.73;2.47;;;9.80;99.90;;;;;;5030116;28;20294;-64
2021/11/07 04:30:13;;;;;;;8.10;2.20;;;9.80;99.90;;;;;;5030017;28;20236;-63
2021/11/07 04:32:42;;;;;;;15.03;3.40;;;9.80;99.90;;;;;;5029467;28;20266;-62
2021/11/07 04:35:11;;;;;;;6.97;2.10;;;9.80;99.90;;;;;;5029674;28;20237;-63
2021/11/07 04:37:42;;;;;;;16.33;3.00;;;9.80;99.90;;;;;;5030383;28;20260;-63
2021/11/07 04:40:11;;;;;;;10.23;2.37;;;9.80;99.90;;;;;;5023050;28;20595;-63
2021/11/07 04:42:41;;;;;;;12.63;2.43;;;9.80;99.90;;;;;;5029487;28;20228;-63
2021/11/07 04:45:10;;;;;;;9.30;2.30;;;9.70;99.90;;;;;;5029679;28;20295;-63
2021/11/07 04:47:40;;;;;;;11.83;2.70;;;9.80;99.90;;;;;;5027588;28;20236;-63
2021/11/07 04:50:10;;;;;;;14.00;2.60;;;9.80;99.90;;;;;;5029433;28;20279;-64
2021/11/07 04:52:39;;;;;;;10.87;2.20;;;9.80;99.90;;;;;;5029006;28;20233;-63
2021/11/07 04:55:08;;;;;;;15.00;2.53;;;9.80;99.90;;;;;;5029242;28;20320;-63
2021/11/07 04:57:41;;;;;;;8.17;1.90;;;9.80;99.90;;;;;;5029713;28;20237;-63
2021/11/07 05:00:17;;;;;;;11.90;2.70;;;9.80;99.90;;;;;;5029423;28;20235;-63
2021/11/07 05:02:48;;;;;;;9.93;2.70;;;9.80;99.90;;;;;;5024203;28;20276;-63
2021/11/07 05:05:17;;;;;;;15.73;2.87;;;9.80;99.90;;;;;;5027570;28;20245;-63
2021/11/07 05:07:46;;;;;;;14.97;2.67;;;9.70;99.90;;;;;;5025170;28;20579;-63
2021/11/07 05:10:14;;;;;;;8.43;2.53;;;9.70;99.90;;;;;;5024733;28;20235;-63
2021/11/07 05:12:42;;;;;;;12.40;2.93;;;9.70;99.90;;;;;;5026633;28;20272;-63
2021/11/07 05:15:11;;;;;;;9.93;2.70;;;9.70;99.90;;;;;;5015542;28;20796;-63
2021/11/07 05:17:39;;;;;;;8.43;2.73;;;9.60;99.90;;;;;;5016959;28;20581;-63
2021/11/07 05:20:11;;;;;;;9.90;2.60;;;9.70;99.90;;;;;;5015757;28;20424;-63
2021/11/07 05:22:40;;;;;;;10.17;2.67;;;9.70;99.90;;;;;;5015884;28;20321;-63
2021/11/07 05:25:11;;;;;;;8.37;2.63;;;9.70;99.90;;;;;;5014645;28;20558;-63
2021/11/07 05:27:39;;;;;;;10.43;2.57;;;9.70;99.90;;;;;;5016619;28;20246;-63
2021/11/07 05:30:10;;;;;;;8.60;3.00;;;9.70;99.90;;;;;;5016200;28;20229;-63
2021/11/07 05:32:39;;;;;;;12.30;2.90;;;9.70;99.90;;;;;;5015516;28;20355;-64
2021/11/07 05:35:09;;;;;;;12.97;2.60;;;9.70;99.90;;;;;;5014665;28;20237;-64
2021/11/07 05:37:38;;;;;;;9.77;2.67;;;9.70;99.90;;;;;;5016432;28;20320;-63
2021/11/07 05:40:07;;;;;;;8.93;2.43;;;9.60;99.90;;;;;;5015764;28;20757;-63
2021/11/07 05:42:35;;;;;;;11.30;2.87;;;9.70;99.90;;;;;;5015374;28;20644;-64
2021/11/07 05:45:04;;;;;;;14.00;3.00;;;9.70;99.90;;;;;;5013580;28;20248;-64
2021/11/07 05:47:33;;;;;;;10.83;3.03;;;9.70;99.90;;;;;;5015885;28;22488;-64
2021/11/07 05:50:01;;;;;;;10.50;3.07;;;9.70;99.90;;;;;;5018073;28;20763;-63
2021/11/07 05:52:30;;;;;;;14.97;3.43;;;9.70;99.90;;;;;;5018706;28;20236;-63
2021/11/07 05:54:58;;;;;;;15.17;3.13;;;9.60;99.90;;;;;;5028276;28;20260;-64
2021/11/07 05:57:28;;;;;;;16.43;3.90;;;9.60;99.90;;;;;;5028061;28;20819;-63
2021/11/07 05:59:59;;;;;;;14.23;3.00;;;9.60;99.90;;;;;;5028323;28;20233;-63
2021/11/07 06:02:27;;;;;;;16.87;3.30;;;9.60;99.90;;;;;;5025558;28;20291;-63
2021/11/07 06:04:55;;;;;;;16.60;3.83;;;9.70;99.90;;;;;;5027541;28;20322;-63
2021/11/07 06:07:23;;;;;;;17.90;3.50;;;9.60;99.90;;;;;;5028290;28;20603;-63
2021/11/07 06:09:53;;;;;;;14.20;2.63;;;9.60;99.90;;;;;;5028444;28;20639;-63
2021/11/07 06:12:21;;;;;;;18.10;3.93;;;9.60;99.90;;;;;;5026951;28;20244;-63
2021/11/07 06:14:49;;;;;;;17.17;3.47;;;9.60;99.90;;;;;;5027037;28;20252;-63
2021/11/07 06:17:17;;;;;;;19.80;3.80;;;9.60;99.90;;;;;;5027633;28;20233;-63
2021/11/07 06:19:45;;;;;;;15.07;3.33;;;9.60;99.90;;;;;;5022136;28;20244;-63
2021/11/07 06:22:13;;;;;;;16.93;2.80;;;9.60;99.90;;;;;;5026888;28;20224;-63
2021/11/07 06:24:42;;;;;;;17.13;3.50;;;9.60;99.90;;;;;;5027443;28;20346;-63
2021/11/07 06:27:11;;;;;;;14.20;3.17;;;9.50;99.90;;;;;;5024294;28;20527;-63
2021/11/07 06:29:41;;;;;;;19.27;4.33;;;9.50;99.90;;;;;;5028009;28;20645;-63
2021/11/07 06:32:10;;;;;;;20.20;3.23;;;9.50;99.90;;;;;;5027484;28;20236;-63
2021/11/07 06:34:38;;;;;;;23.77;3.73;;;9.40;99.90;;;;;;5027557;28;20713;-62
2021/11/07 06:37:08;;;;;;;17.33;3.80;;;9.40;99.90;;;;;;5026865;28;20236;-63
2021/11/07 06:39:36;;;;;;;20.10;3.70;;;9.40;99.90;;;;;;5027329;28;20323;-63
2021/11/07 06:42:06;;;;;;;14.63;3.47;;;9.40;99.90;;;;;;5026603;28;20243;-63
2021/11/07 06:44:36;;;;;;;15.93;3.00;;;9.50;99.90;;;;;;5027173;28;20695;-62
2021/11/07 06:47:06;;;;;;;20.93;3.17;;;9.40;99.90;;;;;;5027132;28;20240;-63
2021/11/07 06:49:34;;;;;;;12.33;3.30;;;9.40;99.90;;;;;;5026587;28;20585;-63
2021/11/07 06:52:03;;;;;;;14.70;3.10;;;9.40;99.90;;;;;;5026478;28;20235;-63
2021/11/07 06:54:31;;;;;;;15.63;3.10;;;9.30;99.90;;;;;;5024907;28;20275;-63
2021/11/07 06:57:00;;;;;;;16.03;3.37;;;9.30;99.90;;;;;;5020672;28;20657;-63
2021/11/07 06:59:29;;;;;;;17.50;2.93;;;9.30;99.90;;;;;;5019346;28;20232;-63
2021/11/07 07:01:59;;;;;;;18.97;3.47;;;9.30;99.90;;;;;;5024877;28;20229;-63
2021/11/07 07:04:27;;;;;;;18.50;3.40;;;9.30;99.90;;;;;;5026058;28;20298;-63
2021/11/07 07:06:56;;;;;;;18.70;3.40;;;9.30;99.90;;;;;;5026385;28;20319;-64
2021/11/07 07:09:27;;;;;;;17.77;3.27;;;9.30;99.90;;;;;;5026077;28;20623;-64
2021/11/07 07:12:04;;;;;;;14.47;3.23;;;9.30;99.90;;;;;;5026033;28;20244;-63
2021/11/07 07:14:36;;;;;;;16.77;2.93;;;9.40;99.90;;;;;;5019470;28;20290;-64
2021/11/07 07:17:19;;;;;;;18.27;4.00;;;9.40;99.90;;;;;;5024242;28;20244;-63
2021/11/07 07:19:59;;;;;;;12.33;2.60;;;9.40;99.90;;;;;;5026515;28;20235;-63
2021/11/07 07:22:45;;;;;;;11.73;2.47;;;9.40;99.90;;;;;;5012202;28;20371;-64
2021/11/07 07:28:18;;;;;;;10.20;2.30;;;9.30;99.90;;;;;;5008933;28;20910;-64
2021/11/07 07:31:10;;;;;;;14.57;2.70;;;9.20;99.90;;;;;;4988304;28;20319;-63
2021/11/07 07:33:45;;;;;;;9.57;2.20;;;9.20;99.90;;;;;;5007865;28;20577;-63
2021/11/07 07:36:13;;;;;;;7.87;2.10;;;9.10;99.90;;;;;;5005468;28;20636;-64
2021/11/07 07:38:41;;;;;;;10.43;2.63;;;9.10;99.90;;;;;;5007927;28;20239;-63
2021/11/07 07:41:10;;;;;;;10.30;2.80;;;9.10;99.90;;;;;;5008298;28;20292;-63
2021/11/07 07:43:39;;;;;;;13.03;3.00;;;9.20;99.90;;;;;;5007710;28;20241;-64
2021/11/07 07:46:12;;;;;;;17.20;2.57;;;9.20;99.90;;;;;;5005462;28;20298;-63
2021/11/07 07:48:43;;;;;;;13.57;3.30;;;9.30;99.90;;;;;;5008564;28;20251;-63
2021/11/07 07:51:14;;;;;;;11.97;2.33;;;9.20;99.90;;;;;;4995827;28;20236;-63
2021/11/07 07:53:44;;;;;;;17.10;2.97;;;9.20;99.90;;;;;;4996324;28;20342;-63
2021/11/07 07:56:13;;;;;;;13.90;3.33;;;9.20;99.90;;;;;;4994687;28;21557;-63
2021/11/07 07:58:42;;;;;;;12.97;2.57;;;9.20;99.90;;;;;;4997473;28;20251;-64
2021/11/07 08:01:10;;;;;;;17.17;3.00;;;9.10;99.90;;;;;;4997313;28;20235;-63
2021/11/07 08:03:39;;;;;;;12.53;2.13;;;9.10;99.90;;;;;;4997559;28;20237;-64
2021/11/07 08:06:08;;;;;;;12.87;2.50;;;9.10;99.90;;;;;;4995153;28;20781;-63
2021/11/07 08:08:37;;;;;;;13.13;3.00;;;9.20;99.90;;;;;;4996187;28;20240;-63
2021/11/07 08:11:05;;;;;;;13.77;2.90;;;9.30;99.90;;;;;;4995113;28;20240;-64
2021/11/07 08:13:33;;;;;;;13.50;3.43;;;9.30;99.90;;;;;;4995876;28;20248;-64
2021/11/07 08:16:01;;;;;;;14.90;3.60;;;9.40;99.90;;;;;;4993254;28;20303;-64
2021/11/07 08:18:31;;;;;;;19.57;3.97;;;9.50;99.90;;;;;;4996615;28;20324;-63
2021/11/07 08:21:00;;;;;;;18.30;3.03;;;9.40;99.90;;;;;;4994936;28;20743;-63
2021/11/07 08:23:29;;;;;;;13.73;3.00;;;9.50;99.90;;;;;;4994552;28;20724;-63
2021/11/07 08:25:58;;;;;;;15.43;3.40;;;9.50;99.90;;;;;;4993956;28;20327;-63
2021/11/07 08:28:26;;;;;;;18.83;3.10;;;9.50;99.90;;;;;;4996365;28;20663;-63
2021/11/07 08:30:57;;;;;;;18.83;3.17;;;9.50;99.90;;;;;;4995364;28;20251;-64
2021/11/07 08:33:25;;;;;;;14.77;3.43;;;9.50;99.90;;;;;;4994735;28;20802;-64
2021/11/07 08:35:58;;;;;;;16.47;3.23;;;9.60;99.90;;;;;;5002482;28;20699;-63
2021/11/07 08:38:31;;;;;;;16.43;4.27;;;9.70;99.90;;;;;;5006375;28;20725;-63
2021/11/07 08:41:07;;;;;;;19.07;3.20;;;9.70;99.90;;;;;;5010143;28;20282;-63
2021/11/07 09:00:28;;;;;;;17.33;3.63;;;10.10;99.90;;;;;;5026628;28;20229;-63
2021/11/07 09:06:11;;;;;;;16.23;3.63;;;9.90;99.90;;;;;;5027115;28;20243;-64
2021/11/07 09:08:43;;;;;;;20.80;3.10;;;10.00;99.90;;;;;;5023466;28;20245;-63
2021/11/07 09:11:13;;;;;;;12.50;2.67;;;10.10;99.90;;;;;;5028662;28;20268;-63
2021/11/07 09:13:43;;;;;;;20.17;3.57;;;10.10;99.90;;;;;;5028454;28;20708;-63
2021/11/07 09:16:13;;;;;;;12.47;3.07;;;10.30;99.90;;;;;;5028252;28;20712;-63
2021/11/07 09:18:41;;;;;;;16.33;3.17;;;10.50;99.90;;;;;;5029090;28;20233;-63
2021/11/07 09:21:12;;;;;;;18.10;3.40;;;10.70;99.90;;;;;;5027320;28;20235;-63
2021/11/07 09:23:47;;;;;;;14.23;3.13;;;10.70;99.90;;;;;;5027124;28;21678;-63
2021/11/07 09:29:08;;;;;;;12.03;2.80;;;10.50;99.90;;;;;;5018521;28;20237;-63
2021/11/07 09:31:48;;;;;;;14.40;2.50;;;10.20;99.90;;;;;;5006227;28;20298;-63
2021/11/07 09:34:23;;;;;;;16.53;3.07;;;10.10;99.90;;;;;;5005974;28;20247;-64
2021/11/07 09:36:58;;;;;;;16.50;2.60;;;9.90;99.90;;;;;;5009412;28;20259;-63
2021/11/07 09:39:33;;;;;;;11.10;2.50;;;9.70;99.90;;;;;;5008914;28;20234;-63
2021/11/07 09:44:46;;;;;;;14.43;2.47;;;9.40;99.90;;;;;;5007207;28;20779;-63
2021/11/07 09:47:33;;;;;;;15.00;2.83;;;9.40;99.90;;;;;;5007987;28;20283;-64
2021/11/07 09:50:01;;;;;;;10.57;2.80;;;9.30;99.90;;;;;;5008884;28;20244;-63
2021/11/07 09:52:36;;;;;;;20.30;4.03;;;9.40;99.90;;;;;;5009263;28;20385;-63
2021/11/07 09:55:07;;;;;;;14.63;3.40;;;9.40;99.90;;;;;;5006553;28;20750;-63
2021/11/07 09:57:36;;;;;;;17.20;3.27;;;9.50;99.90;;;;;;5010294;28;20910;-64
2021/11/07 10:00:10;;;;;;;20.17;3.20;;;9.60;99.90;;;;;;5009271;28;20240;-64
2021/11/07 10:02:40;;;;;;;15.63;3.20;;;9.70;99.90;;;;;;5007784;28;20248;-64
2021/11/07 10:05:09;;;;;;;22.37;3.73;;;9.70;99.90;;;;;;5006231;28;20240;-64
2021/11/07 10:07:40;;;;;;;14.37;3.17;;;9.70;99.90;;;;;;5007918;28;20279;-64
2021/11/07 10:10:18;;;;;;;20.43;3.63;;;9.60;99.90;;;;;;5008443;28;21361;-63
2021/11/07 10:12:49;;;;;;;19.33;3.63;;;9.60;99.90;;;;;;5008231;28;20330;-63
2021/11/07 10:15:27;;;;;;;17.27;3.23;;;9.70;99.90;;;;;;5005246;28;20311;-64
2021/11/07 10:17:58;;;;;;;21.60;3.93;;;9.90;99.90;;;;;;5009187;28;20294;-63
2021/11/07 10:20:30;;;;;;;16.13;2.80;;;9.90;99.90;;;;;;5004118;28;20760;-64
2021/11/07 10:23:03;;;;;;;21.43;3.87;;;9.90;99.90;;;;;;5005268;28;20367;-63
2021/11/07 10:25:38;;;;;;;16.80;3.30;;;9.90;99.90;;;;;;5003309;28;20324;-63
2021/11/07 10:28:16;;;;;;;21.53;3.43;;;10.00;99.90;;;;;;5007509;28;20259;-63
2021/11/07 10:30:48;;;;;;;13.93;3.10;;;10.10;99.90;;;;;;5007876;28;20923;-64
2021/11/07 10:33:40;;;;;;;16.93;2.87;;;10.20;99.90;;;;;;5008234;28;20383;-64
2021/11/07 10:36:38;;;;;;;17.33;3.13;;;10.30;99.90;;;;;;5004625;28;20768;-63
2021/11/07 10:53:41;;;;;;;10.57;2.20;;;10.90;99.90;;;;;;4989007;28;21024;-64
2021/11/07 10:56:10;;;;;;;12.83;2.70;;;11.10;99.90;;;;;;5005245;28;20236;-63
2021/11/07 10:58:41;;;;;;;11.27;2.17;;;11.30;99.90;;;;;;5008775;28;21524;-64
2021/11/07 11:01:11;;;;;;;10.23;2.30;;;11.50;99.90;;;;;;5008376;28;20392;-63
2021/11/07 11:03:45;;;;;;;10.73;1.87;;;11.80;99.90;;;;;;5008081;28;20241;-63
2021/11/07 11:06:14;;;;;;;10.57;2.30;;;12.00;99.90;;;;;;5007693;28;20729;-63
2021/11/07 11:08:46;;;;;;;9.63;2.17;;;12.20;99.90;;;;;;5009592;28;20241;-63
2021/11/07 11:11:21;;;;;;;6.93;2.20;;;12.20;99.90;;;;;;5008813;28;20324;-64
2021/11/07 11:13:56;;;;;;;10.77;2.17;;;12.20;99.90;;;;;;5007624;28;20626;-64
2021/11/07 11:19:36;;;;;;;9.87;2.00;;;11.40;99.90;;;;;;5003859;28;20756;-64
2021/11/07 11:22:28;;;;;;;9.77;2.80;;;11.00;99.90;;;;;;5007476;28;20303;-64
2021/11/07 11:33:42;;;;;;;15.67;3.33;;;10.10;99.90;;;;;;4991969;28;20245;-63
2021/11/07 11:36:22;;;;;;;12.90;2.57;;;10.20;99.90;;;;;;5005707;28;20237;-64
2021/11/07 11:38:56;;;;;;;14.77;3.17;;;10.30;99.90;;;;;;5008535;28;20731;-63
2021/11/07 11:41:29;;;;;;;15.23;3.03;;;10.40;99.90;;;;;;5007746;28;20260;-64
2021/11/07 11:43:59;;;;;;;18.77;3.37;;;10.60;99.90;;;;;;5005860;28;20975;-64
2021/11/07 11:46:39;;;;;;;9.60;2.53;;;10.70;99.90;;;;;;5007689;28;20237;-64
2021/11/07 11:49:45;;;;;;;11.47;2.77;;;10.80;99.90;;;;;;5008733;28;20249;-64
2021/11/07 11:55:26;;;;;;;13.47;3.20;;;11.00;99.90;;;;;;5004601;28;20240;-63
2021/11/07 11:58:00;;;;;;;13.40;2.78;;;11.00;99.90;;;;;;5008471;28;21016;-63
2021/11/07 12:00:40;;;;;;;14.33;3.10;;;11.00;99.90;;;;;;5008472;28;20332;-62
2021/11/07 12:03:15;;;;;;;12.97;3.00;;;11.00;99.90;;;;;;5008460;28;20237;-63
2021/11/07 12:05:48;;;;;;;18.30;3.40;;;11.10;99.90;;;;;;5004638;28;20273;-63
2021/11/07 12:08:30;;;;;;;17.07;3.20;;;11.10;99.90;;;;;;5007709;28;21608;-63
2021/11/07 12:11:19;;;;;;;11.03;2.73;;;11.20;99.90;;;;;;5006920;28;20459;-63
2021/11/07 12:13:52;;;;;;;14.47;3.13;;;11.10;99.90;;;;;;5004914;28;20591;-64
2021/11/07 12:16:47;;;;;;;16.20;3.57;;;11.20;99.90;;;;;;5006627;28;20741;-63
2021/11/07 12:19:18;;;;;;;15.53;3.00;;;11.20;99.90;;;;;;5008590;28;20245;-63
2021/11/07 12:22:00;;;;;;;17.03;3.80;;;11.20;99.90;;;;;;5007489;28;20229;-63
2021/11/07 12:24:32;;;;;;;17.20;3.40;;;11.10;99.90;;;;;;5004694;28;20781;-63
2021/11/07 12:27:25;;;;;;;17.00;3.57;;;11.20;99.90;;;;;;5006938;28;20234;-63
2021/11/07 12:29:56;;;;;;;16.00;2.97;;;11.20;99.90;;;;;;5007980;28;20372;-64
2021/11/07 12:32:25;;;;;;;15.73;3.13;;;11.30;99.90;;;;;;5007246;28;20248;-64
2021/11/07 12:35:00;;;;;;;18.70;3.40;;;11.10;99.90;;;;;;5006490;28;20393;-63
2021/11/07 12:40:42;;;;;;;10.87;2.60;;;10.80;99.90;;;;;;5009330;28;20245;-63
2021/11/07 12:43:14;;;;;;;16.87;3.33;;;10.50;99.90;;;;;;5009638;28;20317;-63
2021/11/07 12:45:47;;;;;;;18.23;4.20;;;10.30;99.90;;;;;;5007409;28;20916;-64
2021/11/07 12:48:31;;;;;;;12.13;2.37;;;10.20;99.90;;;;;;5010870;28;20273;-64
2021/11/07 12:51:01;;;;;;;17.40;3.03;;;10.20;99.90;;;;;;5009445;28;20241;-63
2021/11/07 12:53:52;;;;;;;12.30;2.87;;;10.30;99.90;;;;;;5009692;28;20229;-64
2021/11/07 12:56:30;;;;;;;10.97;2.43;;;10.40;99.90;;;;;;5010295;28;20375;-63
2021/11/07 12:58:59;;;;;;;14.50;3.23;;;10.50;99.90;;;;;;5011540;28;20657;-63
2021/11/07 13:01:27;;;;;;;15.57;3.43;;;10.40;99.90;;;;;;5011063;28;20354;-63
2021/11/07 13:04:01;;;;;;;11.83;3.27;;;10.40;99.90;;;;;;5009291;28;20292;-64
2021/11/07 13:06:35;;;;;;;15.30;2.80;;;10.40;99.90;;;;;;5011417;28;20425;-63
2021/11/07 13:09:04;;;;;;;14.10;3.10;;;10.40;99.90;;;;;;5012868;28;20244;-63
2021/11/07 13:11:44;;;;;;;16.10;3.27;;;10.30;99.90;;;;;;5009648;28;20769;-63
2021/11/07 13:14:18;;;;;;;12.73;2.53;;;10.30;99.90;;;;;;5008817;28;20233;-63
2021/11/07 13:17:05;;;;;;;16.20;2.80;;;10.30;99.90;;;;;;5011349;28;20257;-64
2021/11/07 13:19:45;;;;;;;16.77;3.30;;;10.30;99.90;;;;;;5012004;28;20232;-63
2021/11/07 13:22:37;;;;;;;16.87;2.63;;;10.30;99.90;;;;;;5010645;28;20375;-63
2021/11/07 13:25:16;;;;;;;15.57;3.13;;;10.40;99.90;;;;;;5008390;28;20247;-63
2021/11/07 13:27:48;;;;;;;21.20;3.23;;;10.40;99.90;;;;;;5012349;28;20596;-63
2021/11/07 13:30:18;;;;;;;16.03;3.30;;;10.40;99.90;;;;;;5011249;28;20244;-63
2021/11/07 13:32:47;;;;;;;19.20;3.37;;;10.40;99.90;;;;;;5010298;28;20639;-63
2021/11/07 13:35:18;;;;;;;14.30;3.37;;;10.40;99.90;;;;;;5008269;28;21280;-63
2021/11/07 13:37:51;;;;;;;16.10;3.30;;;10.40;99.90;;;;;;5011457;28;20260;-64
2021/11/07 13:40:27;;;;;;;18.80;3.80;;;10.40;99.90;;;;;;5008417;28;20242;-64
2021/11/07 13:43:05;;;;;;;15.30;2.97;;;10.20;99.90;;;;;;5009759;28;20271;-64
2021/11/07 13:45:36;;;;;;;13.43;2.63;;;10.20;99.90;;;;;;5006929;28;20242;-63
2021/11/07 13:48:13;;;;;;;11.93;2.60;;;10.10;99.90;;;;;;5009206;28;20775;-63
2021/11/07 13:50:43;;;;;;;12.83;2.67;;;9.90;99.90;;;;;;5008237;28;20237;-64
2021/11/07 13:53:19;;;;;;;16.53;2.80;;;9.80;99.90;;;;;;5008863;28;20244;-63
2021/11/07 13:55:51;;;;;;;11.93;2.43;;;9.70;99.90;;;;;;5006445;28;20339;-63
2021/11/07 13:58:23;;;;;;;9.93;2.47;;;9.80;99.90;;;;;;5009343;28;20241;-63
2021/11/07 14:00:54;;;;;;;12.27;2.93;;;9.80;99.90;;;;;;5008520;28;20286;-63
2021/11/07 14:03:23;;;;;;;19.27;3.40;;;9.80;99.90;;;;;;5008808;28;20244;-64
2021/11/07 14:05:55;;;;;;;15.40;2.90;;;9.80;99.90;;;;;;5006004;28;20240;-64
2021/11/07 14:08:24;;;;;;;13.37;2.80;;;9.80;99.90;;;;;;5009577;28;20267;-63
2021/11/07 14:10:53;;;;;;;13.77;2.93;;;9.80;99.90;;;;;;5008641;28;20240;-63